createdAt,value
2024-02-17T00:00:14.563Z,100468.22
2024-02-17T00:02:20.170Z,100478.38
2024-02-17T00:04:25.775Z,100478.95
2024-02-17T00:06:31.478Z,100474.7
2024-02-17T00:08:37.208Z,100476.33
2024-02-17T00:10:42.853Z,100480.86
2024-02-17T00:12:48.413Z,100480.9
2024-02-17T00:14:54.121Z,100484.41
2024-02-17T00:16:59.529Z,100481.1
2024-02-17T00:19:05.033Z,100477.25
2024-02-17T00:21:10.958Z,100483.15
2024-02-17T00:23:16.473Z,100482.59
2024-02-17T00:25:21.853Z,100483.35
2024-02-17T00:27:27.337Z,100489.8
2024-02-17T00:29:32.851Z,100493.34
2024-02-17T00:31:38.107Z,100487.66
2024-02-17T00:33:43.628Z,100492.8
2024-02-17T00:35:49.253Z,100483.23
2024-02-17T00:37:54.778Z,100480.68
2024-02-17T00:40:00.150Z,100487.88
2024-02-17T00:42:05.592Z,100484.61
2024-02-17T00:44:10.919Z,100486.34
2024-02-17T00:46:16.357Z,100497.25
2024-02-17T00:48:22.092Z,100497.9
2024-02-17T00:50:31.840Z,100498.85
2024-02-17T00:52:37.912Z,100500.42
2024-02-17T00:54:43.566Z,100503.55
2024-02-17T00:56:49.197Z,100510.3
2024-02-17T00:58:54.731Z,100511.19
2024-02-17T01:01:00.538Z,100502.16
2024-02-17T01:03:07.275Z,100506.59
2024-02-17T01:05:12.736Z,100504.38
2024-02-17T01:07:18.262Z,100508.13
2024-02-17T01:09:23.910Z,100506.63
2024-02-17T01:11:29.629Z,100506.67
2024-02-17T01:13:35.212Z,100519.64
2024-02-17T01:15:40.947Z,100519.13
2024-02-17T01:17:46.479Z,100517.77
2024-02-17T01:19:52.695Z,100517.98
2024-02-17T01:21:58.519Z,100522.23
2024-02-17T01:24:04.241Z,100525.06
2024-02-17T01:26:10.089Z,100533.44
2024-02-17T01:28:15.579Z,100527
2024-02-17T01:30:21.013Z,100526.63
2024-02-17T01:32:26.462Z,100531.88
2024-02-17T01:34:31.981Z,100525.81
2024-02-17T01:36:37.639Z,100531.09
2024-02-17T01:38:43.495Z,100528.84
2024-02-17T01:40:48.986Z,100533.1
2024-02-17T01:42:54.629Z,100531.4
2024-02-17T01:45:00.144Z,100524.55
2024-02-17T01:47:05.700Z,100528.06
2024-02-17T01:49:11.531Z,100528.54
2024-02-17T01:51:17.157Z,100524.48
2024-02-17T01:53:22.642Z,100531.27
2024-02-17T01:55:28.132Z,100533.06
2024-02-17T01:57:33.816Z,100529.29
2024-02-17T01:59:39.488Z,100538.31
2024-02-17T02:01:45.084Z,100544.75
2024-02-17T02:03:51.037Z,100533.88
2024-02-17T02:05:56.620Z,100539.16
2024-02-17T02:08:02.456Z,100540.12
2024-02-17T02:10:45.881Z,100543.25
2024-02-17T02:12:51.552Z,100550.88
2024-02-17T02:14:57.133Z,100549.82
2024-02-17T02:17:02.429Z,100551.66
2024-02-17T02:19:07.895Z,100556.4
2024-02-17T02:21:13.419Z,100551.63
2024-02-17T02:23:18.855Z,100551.08
2024-02-17T02:25:24.376Z,100554.15
2024-02-17T02:27:29.761Z,100553.47
2024-02-17T02:29:35.272Z,100553.73
2024-02-17T02:31:40.600Z,100556.88
2024-02-17T02:33:46.408Z,100560.03
2024-02-17T02:35:53.100Z,100565.55
2024-02-17T02:37:58.583Z,100558.71
2024-02-17T02:40:03.919Z,100565.31
2024-02-17T02:42:09.533Z,100567.91
2024-02-17T02:44:15.082Z,100565.97
2024-02-17T02:46:20.480Z,100571.95
2024-02-17T02:48:26.166Z,100567.53
2024-02-17T02:50:31.841Z,100574.48
2024-02-17T02:52:37.504Z,100574.44
2024-02-17T02:54:43.331Z,100573.25
2024-02-17T02:56:48.925Z,100575.36
2024-02-17T02:58:54.508Z,100577.06
2024-02-17T03:01:00.276Z,100583.3
2024-02-17T03:03:05.890Z,100580.3
2024-02-17T03:05:11.397Z,100579.75
2024-02-17T03:07:16.896Z,100580.36
2024-02-17T03:09:22.581Z,100591.67
2024-02-17T03:11:28.057Z,100594.39
2024-02-17T03:13:33.583Z,100596.2
2024-02-17T03:15:39.054Z,100604.88
2024-02-17T03:17:44.474Z,100610.94
2024-02-17T03:19:50.282Z,100609.64
2024-02-17T03:21:56.042Z,100609.44
2024-02-17T03:24:01.846Z,100616.9
2024-02-17T03:26:07.490Z,100615.64
2024-02-17T03:28:13.126Z,100624.86
2024-02-17T03:30:18.629Z,100626.84
2024-02-17T03:32:24.361Z,100633.58
2024-02-17T03:34:29.763Z,100637.16
2024-02-17T03:36:35.411Z,100631.67
2024-02-17T03:38:40.749Z,100631.05
2024-02-17T03:40:46.075Z,100633.78
2024-02-17T03:42:51.532Z,100632.11
2024-02-17T03:44:57.060Z,100634.86
2024-02-17T03:47:02.565Z,100640.3
2024-02-17T03:49:08.257Z,100640.68
2024-02-17T03:51:13.982Z,100648.51
2024-02-17T03:53:19.535Z,100643.13
2024-02-17T03:55:25.027Z,100643.73
2024-02-17T03:57:30.510Z,100653.14
2024-02-17T03:59:36.071Z,100657.09
2024-02-17T04:01:41.592Z,100653.95
2024-02-17T04:03:47.055Z,100656.73
2024-02-17T04:05:52.644Z,100667.09
2024-02-17T04:07:58.381Z,100661.27
2024-02-17T04:10:04.032Z,100657.21
2024-02-17T04:12:09.646Z,100657.82
2024-02-17T04:14:14.962Z,100660.98
2024-02-17T04:16:20.401Z,100662.89
2024-02-17T04:18:26.084Z,100671.61
2024-02-17T04:20:31.876Z,100669.63
2024-02-17T04:22:37.447Z,100669.73
2024-02-17T04:24:42.838Z,100673.5
2024-02-17T04:26:48.322Z,100677.52
2024-02-17T04:28:53.705Z,100679.56
2024-02-17T04:30:59.201Z,100686.88
2024-02-17T04:33:05.183Z,100684.5
2024-02-17T04:35:11.135Z,100691.48
2024-02-17T04:37:17.075Z,100680.69
2024-02-17T04:39:22.626Z,100685.73
2024-02-17T04:41:27.939Z,100686.3
2024-02-17T04:43:33.395Z,100684.97
2024-02-17T04:45:38.803Z,100690.83
2024-02-17T04:47:44.275Z,100686.3
2024-02-17T04:49:49.977Z,100688.78
2024-02-17T04:51:55.775Z,100685.2
2024-02-17T04:54:01.414Z,100692.11
2024-02-17T04:56:06.804Z,100695.95
2024-02-17T04:58:12.296Z,100692.2
2024-02-17T05:00:17.951Z,100691.94
2024-02-17T05:02:23.400Z,100689.48
2024-02-17T05:04:29.109Z,100696.94
2024-02-17T05:06:35.101Z,100699.89
2024-02-17T05:08:40.627Z,100700.51
2024-02-17T05:10:46.118Z,100697.75
2024-02-17T05:12:51.899Z,100696.83
2024-02-17T05:14:58.742Z,100694.48
2024-02-17T05:17:04.131Z,100691.55
2024-02-17T05:19:09.707Z,100689.41
2024-02-17T05:21:15.384Z,100689.84
2024-02-17T05:23:20.713Z,100685.18
2024-02-17T05:25:26.203Z,100683.17
2024-02-17T05:27:31.851Z,100688.52
2024-02-17T05:29:37.487Z,100692.22
2024-02-17T05:31:42.928Z,100690.92
2024-02-17T05:33:48.529Z,100691.03
2024-02-17T05:35:54.126Z,100694.36
2024-02-17T05:37:59.649Z,100701.13
2024-02-17T05:40:05.206Z,100699.36
2024-02-17T05:42:10.696Z,100700.99
2024-02-17T05:44:16.304Z,100702.41
2024-02-17T05:46:21.936Z,100712.11
2024-02-17T05:48:27.656Z,100717.15
2024-02-17T05:50:33.229Z,100714.43
2024-02-17T05:52:38.978Z,100718.72
2024-02-17T05:54:44.423Z,100721.58
2024-02-17T05:56:49.969Z,100724.13
2024-02-17T05:58:58.235Z,100727.67
2024-02-17T06:01:04.439Z,100729.2
2024-02-17T06:03:10.062Z,100731.95
2024-02-17T06:05:15.846Z,100734.58
2024-02-17T06:07:22.075Z,100740.84
2024-02-17T06:09:27.898Z,100748.73
2024-02-17T06:11:33.613Z,100740.7
2024-02-17T06:13:39.107Z,100746.81
2024-02-17T06:15:44.769Z,100746.47
2024-02-17T06:17:50.508Z,100753.92
2024-02-17T06:19:56.697Z,100758.81
2024-02-17T06:22:02.332Z,100764.13
2024-02-17T06:24:07.897Z,100767.09
2024-02-17T06:26:13.608Z,100775.02
2024-02-17T06:28:19.044Z,100778.99
2024-02-17T06:30:24.569Z,100788.31
2024-02-17T06:32:30.011Z,100785.72
2024-02-17T06:34:35.738Z,100789.42
2024-02-17T06:36:41.431Z,100799.38
2024-02-17T06:38:46.979Z,100801.48
2024-02-17T06:40:54.965Z,100802.94
2024-02-17T06:43:00.568Z,100813.15
2024-02-17T06:45:06.262Z,100807.53
2024-02-17T06:47:11.798Z,100820.59
2024-02-17T06:49:17.422Z,100821.52
2024-02-17T06:51:24.038Z,100820.19
2024-02-17T06:53:29.546Z,100830.05
2024-02-17T06:55:35.099Z,100834.51
2024-02-17T06:57:40.678Z,100844.24
2024-02-17T06:59:46.188Z,100847.23
2024-02-17T07:01:51.633Z,100836.28
2024-02-17T07:03:57.227Z,100838.17
2024-02-17T07:06:02.732Z,100848.39
2024-02-17T07:08:08.240Z,100838.66
2024-02-17T07:10:13.544Z,100836.95
2024-02-17T07:12:18.996Z,100835.42
2024-02-17T07:14:24.369Z,100837.48
2024-02-17T07:16:29.858Z,100842.7
2024-02-17T07:18:35.537Z,100843.02
2024-02-17T07:20:41.091Z,100844.02
2024-02-17T07:22:46.528Z,100843.77
2024-02-17T07:24:52.120Z,100851.64
2024-02-17T07:26:57.713Z,100850.33
2024-02-17T07:29:03.168Z,100850.23
2024-02-17T07:31:08.755Z,100860.63
2024-02-17T07:33:14.436Z,100866.29
2024-02-17T07:35:20.950Z,100870.39
2024-02-17T07:37:26.565Z,100875.37
2024-02-17T07:39:32.190Z,100873.33
2024-02-17T07:41:37.639Z,100881.61
2024-02-17T07:43:42.979Z,100881.03
2024-02-17T07:45:48.417Z,100883.7
2024-02-17T07:47:54.024Z,100887.32
2024-02-17T07:49:59.875Z,100880.82
2024-02-17T07:52:05.966Z,100880.86
2024-02-17T07:54:11.397Z,100887.48
2024-02-17T07:56:16.868Z,100894.58
2024-02-17T07:58:22.289Z,100904.56
2024-02-17T08:00:27.803Z,100907.84
2024-02-17T08:02:33.584Z,100901
2024-02-17T08:04:39.030Z,100907.86
2024-02-17T08:06:44.838Z,100912.03
2024-02-17T08:08:50.883Z,100910.26
2024-02-17T08:10:57.125Z,100921.67
2024-02-17T08:13:02.962Z,100916.33
2024-02-17T08:15:08.973Z,100925.86
2024-02-17T08:17:15.069Z,100927.4
2024-02-17T08:19:20.805Z,100926.41
2024-02-17T08:21:26.558Z,100931.69
2024-02-17T08:23:31.874Z,100934.73
2024-02-17T08:25:37.346Z,100929.83
2024-02-17T08:27:42.896Z,100947.55
2024-02-17T08:29:48.422Z,100946.14
2024-02-17T08:31:54.593Z,100939.11
2024-02-17T08:34:00.482Z,100946.81
2024-02-17T08:36:06.592Z,100943.69
2024-02-17T08:38:12.422Z,100941.03
2024-02-17T08:40:17.946Z,100942.02
2024-02-17T08:42:23.561Z,100947.96
2024-02-17T08:44:29.113Z,100950.59
2024-02-17T08:46:34.556Z,100954.21
2024-02-17T08:48:40.151Z,100956.22
2024-02-17T08:50:45.912Z,100960.94
2024-02-17T08:52:51.461Z,100967.11
2024-02-17T08:54:56.843Z,100970.15
2024-02-17T08:57:02.480Z,100978.43
2024-02-17T08:59:07.948Z,100979.07
2024-02-17T09:01:13.652Z,100974.23
2024-02-17T09:03:19.351Z,100980.13
2024-02-17T09:05:24.854Z,100982.42
2024-02-17T09:07:30.645Z,100991.58
2024-02-17T09:09:36.151Z,100989.75
2024-02-17T09:11:41.720Z,100993.27
2024-02-17T09:13:47.370Z,100991.37
2024-02-17T09:15:52.948Z,100989.67
2024-02-17T09:17:58.491Z,100983.45
2024-02-17T09:20:04.574Z,100987.09
2024-02-17T09:22:10.158Z,100987.53
2024-02-17T09:24:15.887Z,100987.39
2024-02-17T09:26:21.376Z,100990.59
2024-02-17T09:28:26.858Z,100992.3
2024-02-17T09:30:32.460Z,100998.33
2024-02-17T09:32:38.214Z,101013.51
2024-02-17T09:34:44.003Z,101016.5
2024-02-17T09:36:50.032Z,101014.54
2024-02-17T09:38:55.741Z,101017.14
2024-02-17T09:41:01.164Z,101019.44
2024-02-17T09:43:06.609Z,101025.79
2024-02-17T09:45:12.069Z,101026.86
2024-02-17T09:47:17.477Z,101026.88
2024-02-17T09:49:23.213Z,101024.25
2024-02-17T09:51:28.803Z,101038.38
2024-02-17T09:53:34.334Z,101029.21
2024-02-17T09:55:39.732Z,101030.11
2024-02-17T09:57:56.206Z,101036.42
2024-02-17T10:00:01.799Z,101040.34
2024-02-17T10:02:07.318Z,101041.11
2024-02-17T10:04:12.959Z,101044.16
2024-02-17T10:06:18.998Z,101041.67
2024-02-17T10:08:24.846Z,101041.95
2024-02-17T10:10:30.133Z,101041.86
2024-02-17T10:12:35.681Z,101052.96
2024-02-17T10:14:41.430Z,101047.78
2024-02-17T10:16:47.079Z,101052.5
2024-02-17T10:18:52.692Z,101045.03
2024-02-17T10:20:59.389Z,101049.73
2024-02-17T10:23:05.037Z,101048.67
2024-02-17T10:25:10.366Z,101048.17
2024-02-17T10:27:15.821Z,101051.01
2024-02-17T10:29:21.275Z,101055.18
2024-02-17T10:31:26.798Z,101061.56
2024-02-17T10:33:32.772Z,101060.78
2024-02-17T10:35:38.609Z,101064.03
2024-02-17T10:37:44.097Z,101066.05
2024-02-17T10:39:49.852Z,101068.75
2024-02-17T10:41:55.489Z,101070.47
2024-02-17T10:44:01.036Z,101083.13
2024-02-17T10:46:06.710Z,101076.54
2024-02-17T10:48:12.997Z,101073.17
2024-02-17T10:50:20.322Z,101072.8
2024-02-17T10:52:25.702Z,101080.83
2024-02-17T10:54:31.375Z,101086.02
2024-02-17T10:56:36.912Z,101086.41
2024-02-17T10:58:42.249Z,101081.83
2024-02-17T11:00:47.989Z,101082.13
2024-02-17T11:02:53.730Z,101090.73
2024-02-17T11:04:59.519Z,101080.86
2024-02-17T11:07:05.265Z,101109.18
2024-02-17T11:09:12.966Z,101087.83
2024-02-17T11:11:18.765Z,101087.28
2024-02-17T11:13:24.265Z,101085.09
2024-02-17T11:15:31.837Z,101088.55
2024-02-17T11:17:41.850Z,101087.57
2024-02-17T11:19:48.066Z,101090.3
2024-02-17T11:21:53.736Z,101089.83
2024-02-17T11:23:59.194Z,101084.07
2024-02-17T11:26:04.624Z,101088.88
2024-02-17T11:28:10.159Z,101094.88
2024-02-17T11:30:16.728Z,101105.27
2024-02-17T11:32:22.907Z,101103.13
2024-02-17T11:34:28.649Z,101106.5
2024-02-17T11:36:36.001Z,101109.47
2024-02-17T11:38:41.696Z,101105.98
2024-02-17T11:40:47.019Z,101110.39
2024-02-17T11:42:52.755Z,101110.19
2024-02-17T11:44:58.618Z,101118.41
2024-02-17T11:47:04.557Z,101115.76
2024-02-17T11:49:10.107Z,101122.64
2024-02-17T11:51:16.060Z,101121.52
2024-02-17T11:53:21.509Z,101123.67
2024-02-17T11:55:26.910Z,101122.89
2024-02-17T11:57:32.395Z,101127.34
2024-02-17T11:59:38.141Z,101129.36
2024-02-17T12:01:43.793Z,101135.16
2024-02-17T12:03:49.791Z,101137.69
2024-02-17T12:05:55.399Z,101137.28
2024-02-17T12:08:00.925Z,101142.41
2024-02-17T12:10:06.537Z,101144.25
2024-02-17T12:12:12.089Z,101144.36
2024-02-17T12:14:17.542Z,101145.55
2024-02-17T12:16:22.881Z,101152.28
2024-02-17T12:18:28.631Z,101147.05
2024-02-17T12:20:34.390Z,101151.42
2024-02-17T12:22:39.827Z,101162.95
2024-02-17T12:24:45.385Z,101154.08
2024-02-17T12:26:50.675Z,101157.36
2024-02-17T12:28:56.001Z,101153.01
2024-02-17T12:31:01.623Z,101153.74
2024-02-17T12:33:07.682Z,101154.91
2024-02-17T12:35:13.904Z,101152.28
2024-02-17T12:37:19.692Z,101157.67
2024-02-17T12:39:25.088Z,101159.95
2024-02-17T12:41:30.738Z,101159.38
2024-02-17T12:43:48.623Z,101164.48
2024-02-17T12:46:00.880Z,101173.64
2024-02-17T12:48:06.417Z,101173.81
2024-02-17T12:50:12.163Z,101186.73
2024-02-17T12:52:17.697Z,101181.59
2024-02-17T12:54:23.267Z,101181.73
2024-02-17T12:56:29.167Z,101183.26
2024-02-17T12:58:34.663Z,101185.48
2024-02-17T13:00:40.107Z,101180.02
2024-02-17T13:02:46.008Z,101182.17
2024-02-17T13:04:52.517Z,101188.57
2024-02-17T13:06:58.266Z,101195.11
2024-02-17T13:09:04.085Z,101196.27
2024-02-17T13:11:09.779Z,101203.28
2024-02-17T13:13:15.596Z,101193.67
2024-02-17T13:15:21.221Z,101198.73
2024-02-17T13:17:26.676Z,101215.56
2024-02-17T13:19:32.503Z,101204.64
2024-02-17T13:21:38.290Z,101221.03
2024-02-17T13:23:44.047Z,101213.88
2024-02-17T13:25:49.545Z,101215.59
2024-02-17T13:27:55.211Z,101222.19
2024-02-17T13:30:00.958Z,101228.8
2024-02-17T13:32:06.341Z,101230.52
2024-02-17T13:34:12.075Z,101238.17
2024-02-17T13:36:17.994Z,101233.57
2024-02-17T13:38:31.689Z,101232.25
2024-02-17T13:40:37.154Z,101238.95
2024-02-17T13:42:42.662Z,101234.68
2024-02-17T13:44:48.253Z,101233.38
2024-02-17T13:46:53.828Z,101244.61
2024-02-17T13:48:59.478Z,101247.27
2024-02-17T13:51:05.151Z,101255.64
2024-02-17T13:53:10.619Z,101241.66
2024-02-17T13:55:18.635Z,101251.48
2024-02-17T13:57:24.105Z,101254.55
2024-02-17T13:59:29.478Z,101253.7
2024-02-17T14:01:35.020Z,101253.16
2024-02-17T14:03:40.547Z,101265.89
2024-02-17T14:05:46.094Z,101260.48
2024-02-17T14:07:51.577Z,101263.05
2024-02-17T14:09:57.112Z,101267.98
2024-02-17T14:12:02.652Z,101269.76
2024-02-17T14:14:14.028Z,101282.89
2024-02-17T14:16:23.786Z,101277.41
2024-02-17T14:18:29.332Z,101283.25
2024-02-17T14:20:35.202Z,101276.7
2024-02-17T14:22:40.935Z,101284.17
2024-02-17T14:24:46.532Z,101282.53
2024-02-17T14:26:52.107Z,101287.96
2024-02-17T14:28:57.575Z,101284.86
2024-02-17T14:31:03.084Z,101293.35
2024-02-17T14:33:09.098Z,101294.09
2024-02-17T14:35:15.046Z,101290.2
2024-02-17T14:37:20.759Z,101292.51
2024-02-17T14:39:26.262Z,101295.86
2024-02-17T14:41:31.944Z,101302.68
2024-02-17T14:43:37.639Z,101304.81
2024-02-17T14:45:43.129Z,101313.7
2024-02-17T14:47:48.951Z,101310.67
2024-02-17T14:49:54.865Z,101311.41
2024-02-17T14:52:00.605Z,101319.88
2024-02-17T14:54:06.124Z,101314.2
2024-02-17T14:56:11.655Z,101316
2024-02-17T14:58:17.043Z,101319.08
2024-02-17T15:00:22.680Z,101322.63
2024-02-17T15:02:28.260Z,101324.84
2024-02-17T15:04:33.840Z,101326.94
2024-02-17T15:06:39.820Z,101325.31
2024-02-17T15:08:45.472Z,101320.54
2024-02-17T15:10:51.027Z,101320.45
2024-02-17T15:12:57.852Z,101325.38
2024-02-17T15:15:03.444Z,101336.55
2024-02-17T15:17:08.893Z,101334.41
2024-02-17T15:19:14.386Z,101331.55
2024-02-17T15:21:20.137Z,101337.09
2024-02-17T15:23:25.870Z,101329.14
2024-02-17T15:25:31.357Z,101340.03
2024-02-17T15:27:36.812Z,101344.81
2024-02-17T15:29:42.399Z,101345.16
2024-02-17T15:31:47.822Z,101345.61
2024-02-17T15:33:53.406Z,101345.56
2024-02-17T15:35:59.239Z,101356.91
2024-02-17T15:38:04.964Z,101360.03
2024-02-17T15:40:10.350Z,101362.02
2024-02-17T15:42:15.975Z,101366.77
2024-02-17T15:44:21.291Z,101370.39
2024-02-17T15:46:26.634Z,101370.63
2024-02-17T15:48:33.373Z,101375.17
2024-02-17T15:50:42.435Z,101378
2024-02-17T15:52:47.990Z,101383.83
2024-02-17T15:54:53.620Z,101386.88
2024-02-17T15:56:59.379Z,101386.27
2024-02-17T15:59:04.766Z,101395.5
2024-02-17T16:01:10.515Z,101394.98
2024-02-17T16:03:16.349Z,101395.67
2024-02-17T16:05:22.147Z,101401.26
2024-02-17T16:07:27.793Z,101404.42
2024-02-17T16:09:35.327Z,101405.11
2024-02-17T16:11:40.934Z,101409.99
2024-02-17T16:13:46.774Z,101412.18
2024-02-17T16:15:52.223Z,101416.62
2024-02-17T16:17:57.858Z,101418.84
2024-02-17T16:20:03.612Z,101430.16
2024-02-17T16:22:09.306Z,101428.54
2024-02-17T16:24:14.881Z,101433.53
2024-02-17T16:26:20.462Z,101437.56
2024-02-17T16:28:26.037Z,101443.31
2024-02-17T16:30:31.706Z,101446.2
2024-02-17T16:32:37.431Z,101453.32
2024-02-17T16:34:43.340Z,101457.05
2024-02-17T16:36:49.100Z,101466.33
2024-02-17T16:38:54.399Z,101472.31
2024-02-17T16:40:59.675Z,101480.08
2024-02-17T16:43:04.940Z,101472.95
2024-02-17T16:45:10.122Z,101483.33
2024-02-17T16:47:15.800Z,101479.13
2024-02-17T16:49:21.283Z,101481.55
2024-02-17T16:51:26.930Z,101481.2
2024-02-17T16:53:33.446Z,101483.45
2024-02-17T16:55:38.884Z,101491.3
2024-02-17T16:57:44.232Z,101490.22
2024-02-17T16:59:49.662Z,101495.03
2024-02-17T17:01:55.184Z,101498.53
2024-02-17T17:04:00.787Z,101499.98
2024-02-17T17:06:06.391Z,101506.91
2024-02-17T17:08:11.654Z,101511.19
2024-02-17T17:10:17.089Z,101515.36
2024-02-17T17:12:22.686Z,101519.68
2024-02-17T17:14:28.225Z,101524.17
2024-02-17T17:16:33.596Z,101525.66
2024-02-17T17:18:39.191Z,101528.75
2024-02-17T17:20:45.003Z,101532.55
2024-02-17T17:22:50.731Z,101536.84
2024-02-17T17:24:56.279Z,101534.92
2024-02-17T17:27:01.847Z,101541.84
2024-02-17T17:29:07.214Z,101545.48
2024-02-17T17:31:12.787Z,101552.01
2024-02-17T17:33:18.583Z,101557.56
2024-02-17T17:35:25.948Z,101561.66
2024-02-17T17:37:31.388Z,101569.08
2024-02-17T17:39:38.524Z,101564.96
2024-02-17T17:41:45.549Z,101565.58
2024-02-17T17:43:50.982Z,101571.93
2024-02-17T17:45:56.634Z,101576.47
2024-02-17T17:48:02.339Z,101577.49
2024-02-17T17:50:07.917Z,101586.91
2024-02-17T17:52:13.778Z,101587.44
2024-02-17T17:54:19.325Z,101586.68
2024-02-17T17:56:24.649Z,101591.71
2024-02-17T17:58:31.148Z,101596.63
2024-02-17T18:00:37.965Z,101596.54
2024-02-17T18:02:43.432Z,101594.18
2024-02-17T18:04:50.726Z,101596
2024-02-17T18:06:57.931Z,101606.06
2024-02-17T18:09:04.575Z,101610.28
2024-02-17T18:11:09.925Z,101612.88
2024-02-17T18:13:15.309Z,101614.52
2024-02-17T18:15:20.576Z,101617.62
2024-02-17T18:17:26.164Z,101622.31
2024-02-17T18:19:32.143Z,101630.91
2024-02-17T18:21:38.052Z,101639.97
2024-02-17T18:23:43.667Z,101639.27
2024-02-17T18:25:49.126Z,101640.13
2024-02-17T18:27:54.718Z,101645.11
2024-02-17T18:30:00.360Z,101650.19
2024-02-17T18:32:06.001Z,101656.92
2024-02-17T18:34:11.775Z,101657.62
2024-02-17T18:36:19.189Z,101654.73
2024-02-17T18:38:24.711Z,101664.92
2024-02-17T18:40:30.027Z,101665.41
2024-02-17T18:42:35.475Z,101665.57
2024-02-17T18:44:41.732Z,101671.77
2024-02-17T18:46:47.404Z,101675.75
2024-02-17T18:48:53.663Z,101671.73
2024-02-17T18:50:59.382Z,101674
2024-02-17T18:53:04.845Z,101678.59
2024-02-17T18:55:10.328Z,101674.45
2024-02-17T18:57:16.057Z,101681.24
2024-02-17T18:59:21.587Z,101686.98
2024-02-17T19:01:27.492Z,101684.45
2024-02-17T19:03:33.248Z,101691.84
2024-02-17T19:05:38.834Z,101694.89
2024-02-17T19:07:44.418Z,101701.47
2024-02-17T19:09:51.731Z,101700.25
2024-02-17T19:11:57.095Z,101708.51
2024-02-17T19:14:02.395Z,101709.89
2024-02-17T19:16:07.702Z,101713.05
2024-02-17T19:18:13.084Z,101718.48
2024-02-17T19:20:18.620Z,101721.55
2024-02-17T19:22:24.118Z,101720.94
2024-02-17T19:24:29.494Z,101720.53
2024-02-17T19:26:36.982Z,101733.39
2024-02-17T19:28:42.325Z,101745.46
2024-02-17T19:30:47.813Z,101745.29
2024-02-17T19:32:53.600Z,101752.52
2024-02-17T19:34:59.429Z,101756.14
2024-02-17T19:37:06.081Z,101757.33
2024-02-17T19:39:12.049Z,101758.41
2024-02-17T19:41:17.562Z,101760.55
2024-02-17T19:43:23.029Z,101767.53
2024-02-17T19:45:28.684Z,101769.2
2024-02-17T19:47:34.364Z,101771.51
2024-02-17T19:49:40.202Z,101768.16
2024-02-17T19:51:46.161Z,101764.23
2024-02-17T19:53:51.846Z,101766.54
2024-02-17T19:55:58.442Z,101770.58
2024-02-17T19:58:03.848Z,101775.63
2024-02-17T20:00:09.401Z,101779.83
2024-02-17T20:02:14.933Z,101778.66
2024-02-17T20:04:20.959Z,101777.52
2024-02-17T20:06:26.890Z,101782.78
2024-02-17T20:08:34.261Z,101791.2
2024-02-17T20:10:39.701Z,101784.63
2024-02-17T20:12:45.256Z,101789.39
2024-02-17T20:14:50.904Z,101791.2
2024-02-17T20:16:56.541Z,101795.9
2024-02-17T20:19:02.179Z,101796.29
2024-02-17T20:21:08.509Z,101802.5
2024-02-17T20:23:13.908Z,101802.64
2024-02-17T20:25:19.433Z,101806.49
2024-02-17T20:27:29.860Z,101810.75
2024-02-17T20:29:35.434Z,101816.13
2024-02-17T20:31:40.856Z,101817.33
2024-02-17T20:33:46.600Z,101816.72
2024-02-17T20:35:52.210Z,101829.62
2024-02-17T20:37:57.665Z,101833.1
2024-02-17T20:40:03.603Z,101828.2
2024-02-17T20:42:09.085Z,101835.83
2024-02-17T20:44:14.541Z,101840.16
2024-02-17T20:46:20.073Z,101842.28
2024-02-17T20:48:25.824Z,101853.41
2024-02-17T20:50:31.412Z,101837.31
2024-02-17T20:52:36.912Z,101838.88
2024-02-17T20:54:42.336Z,101834.61
2024-02-17T20:56:48.001Z,101846.76
2024-02-17T20:59:05.264Z,101842.3
2024-02-17T21:01:26.116Z,101838.16
2024-02-17T21:03:32.116Z,101839.81
2024-02-17T21:05:37.847Z,101839.25
2024-02-17T21:07:43.366Z,101839.27
2024-02-17T21:09:49.110Z,101836.75
2024-02-17T21:11:54.660Z,101841.16
2024-02-17T21:14:00.284Z,101842.23
2024-02-17T21:16:06.036Z,101850.13
2024-02-17T21:18:11.738Z,101852.14
2024-02-17T21:20:17.619Z,101841.5
2024-02-17T21:22:22.989Z,101846.45
2024-02-17T21:24:28.425Z,101843.28
2024-02-17T21:26:33.865Z,101843.16
2024-02-17T21:28:39.238Z,101849.48
2024-02-17T21:30:44.852Z,101845.61
2024-02-17T21:32:50.478Z,101847.24
2024-02-17T21:34:56.176Z,101849.38
2024-02-17T21:37:01.922Z,101853.89
2024-02-17T21:39:07.606Z,101855.58
2024-02-17T21:41:13.058Z,101853.46
2024-02-17T21:43:18.390Z,101851.84
2024-02-17T21:45:23.958Z,101866.53
2024-02-17T21:47:29.921Z,101846.31
2024-02-17T21:49:35.703Z,101846.12
2024-02-17T21:51:41.489Z,101848.88
2024-02-17T21:53:46.926Z,101851.14
2024-02-17T21:55:52.342Z,101847.31
2024-02-17T21:57:57.782Z,101848.41
2024-02-17T22:00:03.136Z,101850.44
2024-02-17T22:02:10.130Z,101854.84
2024-02-17T22:04:15.855Z,101863.22
2024-02-17T22:06:21.464Z,101868.14
2024-02-17T22:08:26.970Z,101866.58
2024-02-17T22:10:32.293Z,101869.75
2024-02-17T22:12:38.154Z,101874.67
2024-02-17T22:14:43.477Z,101876.2
2024-02-17T22:16:49.030Z,101879.83
2024-02-17T22:18:54.702Z,101886.36
2024-02-17T22:21:00.328Z,101882
2024-02-17T22:23:05.754Z,101879.77
2024-02-17T22:25:11.345Z,101881.47
2024-02-17T22:27:17.084Z,101880.22
2024-02-17T22:29:22.661Z,101878.25
2024-02-17T22:31:28.039Z,101885.02
2024-02-17T22:33:33.715Z,101892.45
2024-02-17T22:35:39.201Z,101887.45
2024-02-17T22:37:44.557Z,101899.59
2024-02-17T22:39:50.102Z,101894.64
2024-02-17T22:41:55.650Z,101897.62
2024-02-17T22:44:01.113Z,101891.7
2024-02-17T22:46:06.863Z,101888.77
2024-02-17T22:48:12.750Z,101893.45
2024-02-17T22:50:18.472Z,101894.52
2024-02-17T22:52:24.090Z,101899.73
2024-02-17T22:54:29.644Z,101898.83
2024-02-17T22:56:35.152Z,101904.53
2024-02-17T22:58:40.696Z,101909.25
2024-02-17T23:00:46.331Z,101908.14
2024-02-17T23:02:52.003Z,101913.69
2024-02-17T23:04:57.730Z,101911.95
2024-02-17T23:07:03.474Z,101925.52
2024-02-17T23:09:09.238Z,101918.03
2024-02-17T23:11:14.823Z,101922.17
2024-02-17T23:13:20.614Z,101928.7
2024-02-17T23:15:25.974Z,101928.22
2024-02-17T23:17:31.735Z,101934.77
2024-02-17T23:19:38.069Z,101930.95
2024-02-17T23:21:48.377Z,101935.47
2024-02-17T23:23:54.083Z,101931.33
2024-02-17T23:25:59.509Z,101931.91
2024-02-17T23:28:05.302Z,101934.45
2024-02-17T23:30:11.161Z,101933.63
2024-02-17T23:32:16.754Z,101934.89
2024-02-17T23:34:22.797Z,101936.42
2024-02-17T23:36:28.567Z,101939.56
2024-02-17T23:38:34.090Z,101941.08
2024-02-17T23:40:39.395Z,101941.22
2024-02-17T23:42:45.029Z,101938.27
2024-02-17T23:44:50.593Z,101938.98
2024-02-17T23:46:55.866Z,101941.02
2024-02-17T23:49:01.678Z,101942.52
2024-02-17T23:51:07.590Z,101939
2024-02-17T23:53:13.010Z,101938.08
2024-02-17T23:55:18.537Z,101942.83
2024-02-17T23:57:24.214Z,101945.78
2024-02-17T23:59:29.842Z,101947.85
